Latest Weather Observations for Tuggeranong

IDN60801

Issued at 12:05 pm EDT Friday 28 November 2014 (issued every 30 minutes, with the page automatically refreshed every 10 minutes)

About weather observations | Map of weather stations | Latest weather observations for NSW | Other Formats
Station Details ID: 070339 Name: TUGGERANONG (ISABELLA PLAINS) AWS Lat: -35.42 Lon: 149.09 Height: 586.7 m
Data from the previous 72 hours. | See also: Recent months at Tuggeranong
Date/Time
EDT
Temp
°C
App
Temp
°C
Dew
Point
Rel
Hum
%
Delta-T
°C
Wind Press
QNH
hPa
Press
MSL
hPa
Rain
since 9 am
mm
Dir
 
Spd
km/h
Gust
km/h
Spd
kts
Gust
kts
28/12:00pm 20.9 18.2 7.2 41 7.2 NW 11 20 6 11 1022.5 1020.9 0.0
28/11:30am 19.4 17.0 6.8 44 6.5 N 9 17 5 9 1023.2 1021.5 0.0
28/11:00am 18.5 16.2 7.3 48 5.8 N 9 15 5 8 1023.6 1022.0 0.0
28/10:30am 18.0 15.9 8.3 53 5.1 N 9 20 5 11 1023.9 1022.3 0.0
28/10:00am 16.3 13.2 7.3 55 4.6 ENE 13 19 7 10 1024.0 1022.4 0.0
28/09:30am 15.9 13.3 7.9 59 4.1 N 11 17 6 9 1024.2 1022.6 0.0
28/09:00am 15.5 13.2 7.5 59 4.1 ENE 9 15 5 8 1024.4 1022.8 0.0
28/08:30am 15.4 12.7 7.2 58 4.2 ENE 11 15 6 8 1024.4 1022.8 0.0
28/08:00am 14.8 12.3 6.6 58 4.1 E 9 13 5 7 1024.4 1022.8 0.0
28/07:30am 14.6 13.6 7.4 62 3.7 E 2 7 1 4 1024.1 1022.5 0.0
28/07:00am 12.7 10.7 7.0 68 2.8 E 7 9 4 5 1024.0 1022.4 0.0
28/06:30am 11.4 9.5 6.9 74 2.2 E 6 7 3 4 1023.7 1022.1 0.0
28/06:00am 10.2 8.1 6.7 79 1.7 ENE 7 9 4 5 1023.4 1021.8 0.0
28/05:30am 10.4 7.9 6.7 78 1.8 E 9 11 5 6 1023.2 1021.5 0.0
28/05:00am 10.6 8.5 6.7 77 1.9 ESE 7 9 4 5 1023.2 1021.5 0.0
28/04:30am 11.2 9.3 6.7 74 2.2 ENE 6 7 3 4 1023.0 1021.3 0.0
28/04:00am 12.1 10.0 6.8 70 2.6 ENE 7 11 4 6 1023.1 1021.4 0.0
28/03:30am 12.9 10.0 6.7 66 3.1 ESE 11 17 6 9 1023.2 1021.5 0.0
28/03:00am 13.4 11.1 7.6 68 2.9 E 9 11 5 6 1023.4 1021.8 0.0
28/02:30am 13.3 10.7 7.7 69 2.8 E 11 15 6 8 1023.8 1022.2 0.0
28/02:00am 13.4 10.8 7.8 69 2.8 E 11 17 6 9 1024.0 1022.4 0.0
28/01:30am 13.4 10.4 7.8 69 2.8 E 13 17 7 9 1024.0 1022.4 0.0
28/01:00am 13.4 11.0 8.5 72 2.5 ENE 11 15 6 8 1024.3 1022.7 0.0
28/12:30am 13.4 11.0 8.7 73 2.4 ENE 11 19 6 10 1024.6 1023.0 0.0
28/12:00am 13.4 10.7 8.9 74 2.3 E 13 20 7 11 1024.6 1023.0 0.0
 
Date/Time
EDT
Temp
°C
App
Temp
°C
Dew
Point
Rel
Hum
%
Delta-T
°C
Wind Press
QNH
hPa
Press
MSL
hPa
Rain
since 9 am
mm
Dir
 
Spd
km/h
Gust
km/h
Spd
kts
Gust
kts
27/11:30pm 13.6 11.0 9.5 76 2.2 E 13 19 7 10 1024.8 1023.1 0.0
27/11:00pm 13.6 10.2 9.3 75 2.2 E 17 24 9 13 1025.0 1023.4 0.0
27/10:30pm 13.8 10.9 9.5 75 2.3 E 15 22 8 12 1024.9 1023.2 0.0
27/10:00pm 13.9 11.0 9.5 75 2.3 ENE 15 22 8 12 1024.9 1023.2 0.0
27/09:30pm 14.0 10.7 9.6 75 2.3 E 17 24 9 13 1024.3 1022.7 0.0
27/09:00pm 14.2 10.6 10.0 76 2.2 ENE 19 32 10 17 1024.1 1022.5 0.0
27/08:30pm 14.5 11.0 10.1 75 2.4 E 19 28 10 15 1023.7 1022.1 0.0
27/08:00pm 15.2 12.5 10.4 73 2.6 E 15 24 8 13 1023.4 1021.8 0.0
27/07:30pm 16.0 13.0 10.5 70 3.0 ENE 17 24 9 13 1022.7 1021.1 0.0
27/07:00pm 17.0 13.7 10.8 67 3.4 E 19 32 10 17 1022.0 1020.4 0.0
27/06:30pm 17.8 13.5 10.9 64 3.8 E 24 39 13 21 1021.4 1019.7 0.0
27/06:00pm 19.2 14.7 11.3 60 4.4 E 26 39 14 21 1020.5 1018.9 0.0
27/05:30pm 21.6 18.0 10.7 50 6.1 ENE 20 33 11 18 1020.0 1018.3 0.0
27/05:00pm 23.3 19.0 7.8 37 8.4 E 20 32 11 17 1019.6 1017.9 0.0
27/04:30pm 24.3 21.1 7.0 33 9.3 NNE 13 24 7 13 1019.6 1017.9 0.0
27/04:00pm 23.5 20.3 6.7 34 8.9 ENE 13 22 7 12 1019.8 1018.1 0.0
27/03:30pm 24.6 22.0 7.7 34 9.2 N 11 19 6 10 1020.0 1018.3 0.0
27/03:00pm 23.5 20.8 7.2 35 8.7 ENE 11 26 6 14 1020.2 1018.5 0.0
27/02:30pm 24.5 22.2 7.6 34 9.2 SW 9 15 5 8 1020.5 1018.9 0.0
27/02:00pm 22.6 19.7 8.0 39 7.9 ENE 13 22 7 12 1020.8 1019.2 0.0
27/01:30pm 23.3 20.7 7.8 37 8.4 NNW 11 19 6 10 1021.1 1019.4 0.0
27/01:00pm 22.0 19.1 8.2 41 7.4 N 13 22 7 12 1021.4 1019.7 0.0
27/12:30pm 21.3 19.7 8.6 44 6.9 NE 7 13 4 7 1021.7 1020.0 0.0
27/12:00pm 20.8 18.9 9.1 47 6.4 WNW 9 17 5 9 1022.0 1020.4 0.0
27/11:30am 20.1 18.3 9.4 50 5.8 N 9 15 5 8 1022.3 1020.7 0.0
27/11:00am 18.2 16.4 9.5 57 4.7 NW 9 17 5 9 1022.7 1021.1 0.0
27/10:30am 17.9 15.8 9.8 59 4.4 N 11 17 6 9 1022.9 1021.2 0.0
27/10:00am 18.7 16.9 9.5 55 5.0 E 9 15 5 8 1023.1 1021.4 0.0
27/09:30am 17.8 16.0 9.4 58 4.5 ESE 9 15 5 8 1023.1 1021.4 0.0
27/09:00am 16.9 14.9 10.3 65 3.6 ENE 11 19 6 10 1023.3 1021.6 0.0
27/08:30am 15.3 13.1 10.7 74 2.5 NNE 13 19 7 10 1023.3 1021.6 0.0
27/08:00am 15.4 14.5 10.8 74 2.5 SSE 6 9 3 5 1023.1 1021.4 0.0
27/07:30am 15.0 14.0 10.2 73 2.6 S 6 9 3 5 1022.6 1021.0 0.0
27/07:00am 14.9 13.8 10.5 75 2.4 SSE 7 9 4 5 1022.4 1020.8 0.0
27/06:30am 14.5 13.4 10.5 77 2.2 SSE 7 9 4 5 1022.2 1020.6 0.0
27/06:00am 14.4 13.4 10.4 77 2.2 SSE 6 7 3 4 1022.0 1020.4 0.0
27/05:30am 14.2 13.1 10.8 80 1.8 SE 7 9 4 5 1021.7 1020.0 0.0
27/05:00am 14.5 12.5 10.3 76 2.3 SE 11 15 6 8 1021.4 1019.7 0.0
27/04:30am 14.8 13.3 10.4 75 2.4 ESE 9 15 5 8 1021.1 1019.4 0.0
27/04:00am 14.8 12.9 10.4 75 2.4 E 11 19 6 10 1020.6 1019.0 0.0
27/03:30am 14.8 12.9 10.6 76 2.3 E 11 17 6 9 1020.7 1019.1 0.0
27/03:00am 14.7 12.4 10.5 76 2.3 E 13 20 7 11 1020.8 1019.2 0.0
27/02:30am 14.9 13.0 10.5 75 2.4 E 11 19 6 10 1020.8 1019.2 0.0
27/02:00am 15.1 13.2 10.5 74 2.5 E 11 17 6 9 1020.6 1019.0 0.0
27/01:30am 15.4 13.1 10.6 73 2.6 E 13 20 7 11 1020.7 1019.1 0.0
27/01:00am 15.6 13.8 11.0 74 2.5 E 11 17 6 9 1021.1 1019.4 0.0
27/12:30am 15.8 14.8 11.0 73 2.6 E 7 11 4 6 1021.1 1019.4 0.0
27/12:00am 16.1 14.4 11.3 73 2.7 E 11 17 6 9 1021.3 1019.6 0.0
 
Date/Time
EDT
Temp
°C
App
Temp
°C
Dew
Point
Rel
Hum
%
Delta-T
°C
Wind Press
QNH
hPa
Press
MSL
hPa
Rain
since 9 am
mm
Dir
 
Spd
km/h
Gust
km/h
Spd
kts
Gust
kts
26/11:30pm 16.2 14.9 11.4 73 2.7 E 9 13 5 7 1021.4 1019.7 0.0
26/11:00pm 16.2 13.8 11.4 73 2.7 E 15 20 8 11 1021.4 1019.7 0.0
26/10:30pm 16.2 14.2 11.6 74 2.6 E 13 20 7 11 1021.4 1019.7 0.0
26/10:00pm 16.3 14.7 11.5 73 2.7 ESE 11 17 6 9 1021.1 1019.4 0.0
26/09:30pm 16.5 14.5 11.4 72 2.8 E 13 19 7 10 1020.8 1019.2 0.0
26/09:00pm 16.7 14.6 11.2 70 3.0 E 13 20 7 11 1020.4 1018.8 0.0
26/08:30pm 17.0 14.4 10.6 66 3.5 E 15 24 8 13 1020.0 1018.3 0.0
26/08:00pm 17.7 15.1 10.8 64 3.8 E 15 22 8 12 1019.3 1017.6 0.0
26/07:30pm 18.9 15.4 11.0 60 4.4 E 20 30 11 16 1018.2 1016.5 0.0
26/07:00pm 20.2 15.7 11.4 57 5.0 ENE 26 39 14 21 1017.3 1015.6 0.0
26/06:30pm 22.2 17.3 11.3 50 6.2 E 28 39 15 21 1016.6 1014.9 0.0
26/06:00pm 25.1 20.6 6.8 31 9.8 ENE 20 30 11 16 1015.3 1013.6 0.0
26/05:30pm 24.4 21.0 5.7 30 9.8 E 13 19 7 10 1015.3 1013.6 0.0
26/05:00pm 25.5 22.6 6.7 30 10.1 N 11 17 6 9 1015.2 1013.5 0.0
26/04:30pm 25.7 22.6 7.3 31 10.0 N 13 20 7 11 1015.7 1013.9 0.0
26/04:00pm 25.2 22.3 6.4 30 10.0 NNE 11 17 6 9 1015.9 1014.1 0.0
26/03:30pm 25.2 22.1 5.4 28 10.4 N 11 24 6 13 1016.1 1014.4 0.0
26/03:00pm 25.1 22.3 5.3 28 10.3 NNW 9 19 5 10 1016.4 1014.7 0.0
26/02:30pm 25.0 21.6 4.2 26 10.6 N 11 20 6 11 1016.6 1014.9 0.0
26/02:00pm 24.0 21.3 5.4 30 9.7 NNW 9 19 5 10 1017.0 1015.3 0.0
26/01:30pm 23.7 20.1 5.1 30 9.6 NW 13 20 7 11 1017.3 1015.6 0.0
26/01:00pm 22.8 19.6 5.3 32 9.0 N 11 17 6 9 1017.8 1016.1 0.0
26/12:30pm 22.3 18.9 6.1 35 8.4 N 13 22 7 12 1018.1 1016.4 0.0
26/12:00pm 21.3 19.0 5.6 36 8.0 NNW 7 19 4 10 1018.6 1016.9 0.0
26/11:30am 20.5 17.7 5.3 37 7.7 W 9 13 5 7 1018.9 1017.3 0.0
26/11:00am 19.2 17.3 7.6 47 6.1 N 7 17 4 9 1019.3 1017.6 0.0
26/10:30am 19.0 16.5 8.1 49 5.8 NW 11 19 6 10 1019.5 1017.8 0.0
26/10:00am 17.6 15.7 7.4 51 5.3 NW 7 15 4 8 1019.8 1018.1 0.0
26/09:30am 16.9 15.0 9.1 60 4.2 NNE 9 13 5 7 1019.9 1018.2 0.0
26/09:00am 15.8 14.2 8.1 60 4.0 NNE 6 9 3 5 1020.1 1018.4 0.0
26/08:30am 15.2 14.2 8.7 65 3.4 NNE 4 9 2 5 1020.1 1018.4 0.0
26/08:00am 14.4 12.9 9.0 70 2.8 NE 7 11 4 6 1020.3 1018.6 0.0
26/07:30am 13.5 13.5 9.7 78 2.0 CALM 0 6 0 3 1020.3 1018.6 0.0
26/07:00am 12.5 12.6 10.0 85 1.3 CALM 0 0 0 0 1020.1 1018.4 0.0
26/06:30am 10.8 10.7 9.6 92 0.6 CALM 0 0 0 0 1020.1 1018.4 0.0
26/06:00am 10.5 9.9 9.1 91 0.7 NE 2 6 1 3 1019.9 1018.2 0.0
26/05:30am 11.5 11.4 9.6 88 1.0 CALM 0 0 0 0 1019.7 1018.0 0.0
26/05:00am 12.1 12.1 9.8 86 1.2 CALM 0 0 0 0 1019.5 1017.8 0.0
26/04:30am 11.8 11.9 10.2 90 0.8 CALM 0 0 0 0 1019.3 1017.6 0.0
26/04:00am 11.2 11.1 9.3 88 1.0 CALM 0 0 0 0 1019.3 1017.6 0.0
26/03:30am 11.6 11.5 9.5 87 1.1 CALM 0 0 0 0 1019.4 1017.7 0.0
26/03:00am 11.6 11.6 9.7 88 1.0 CALM 0 2 0 1 1019.7 1018.0 0.0
26/02:30am 11.3 11.1 9.2 87 1.1 CALM 0 2 0 1 1019.8 1018.1 0.0
26/02:00am 11.9 11.0 9.3 84 1.3 SSE 4 6 2 3 1020.1 1018.4 0.0
26/01:30am 11.7 10.3 9.6 87 1.1 SSW 7 9 4 5 1020.4 1018.8 0.0
26/01:00am 12.3 11.0 9.3 82 1.6 SE 6 11 3 6 1020.4 1018.8 0.0
26/12:30am 13.1 11.4 9.9 81 1.7 E 9 15 5 8 1020.5 1018.9 0.0
26/12:00am 13.3 11.7 10.1 81 1.7 E 9 15 5 8 1020.6 1019.0 0.0
 
Date/Time
EDT
Temp
°C
App
Temp
°C
Dew
Point
Rel
Hum
%
Delta-T
°C
Wind Press
QNH
hPa
Press
MSL
hPa
Rain
since 9 am
mm
Dir
 
Spd
km/h
Gust
km/h
Spd
kts
Gust
kts
25/11:30pm 13.7 11.4 10.3 80 1.8 E 13 19 7 10 1020.4 1018.8 0.0
25/11:00pm 14.1 12.1 10.3 78 2.0 ENE 11 15 6 8 1020.3 1018.6 0.0
25/10:30pm 14.8 11.7 10.4 75 2.4 ENE 17 24 9 13 1020.1 1018.4 0.0
25/10:00pm 15.5 12.1 5.7 52 4.8 ENE 13 19 7 10 1019.7 1018.0 0.0
25/09:30pm 15.8 13.4 4.5 47 5.5 NNW 6 7 3 4 1019.1 1017.5 0.0
25/09:00pm 17.1 14.5 4.1 42 6.3 W 7 15 4 8 1018.8 1017.1 0.0
25/08:30pm 17.9 14.2 4.5 41 6.6 W 13 20 7 11 1018.4 1016.7 0.0
25/08:00pm 18.4 15.1 4.6 40 6.8 W 11 19 6 10 1018.0 1016.3 0.0
25/07:30pm 20.2 16.9 4.3 35 7.9 W 11 20 6 11 1017.7 1016.0 0.0
25/07:00pm 21.3 16.8 4.4 33 8.5 W 17 26 9 14 1017.1 1015.4 0.0
25/06:30pm 22.2 17.7 4.3 31 9.0 W 17 24 9 13 1016.5 1014.8 0.0
25/06:00pm 22.3 17.2 3.9 30 9.2 WNW 20 30 11 16 1016.3 1014.6 0.0
25/05:30pm 23.4 19.5 5.3 31 9.4 WNW 15 20 8 11 1016.1 1014.4 0.0
25/05:00pm 23.8 19.3 4.2 28 9.9 NW 17 26 9 14 1016.0 1014.3 0.0
25/04:30pm 23.8 19.9 3.2 26 10.3 WNW 13 26 7 14 1016.0 1014.3 0.0
25/04:00pm 24.1 19.5 -0.9 19 11.6 WSW 13 19 7 10 1015.9 1014.1 0.0
25/03:30pm 24.0 19.9 -0.3 20 11.4 WSW 11 22 6 12 1015.9 1014.1 0.0
25/03:00pm 23.5 18.5 -1.4 19 11.4 WNW 15 24 8 13 1015.9 1014.1 0.0
25/02:30pm 23.4 19.0 -2.2 18 11.5 W 11 22 6 12 1015.8 1014.0 0.0
25/02:00pm 22.9 18.7 -1.2 20 11.0 W 11 19 6 10 1015.9 1014.1 0.0
25/01:30pm 22.9 18.4 -0.6 21 10.8 WNW 13 22 7 12 1015.9 1014.1 0.0
25/01:00pm 22.0 15.9 -4.1 17 11.2 WSW 19 26 10 14 1016.3 1014.6 0.0
25/12:30pm 21.9 17.7 1.5 26 9.7 NW 13 26 7 14 1016.3 1014.6 0.0

Other Formats:

Comma delimited format used in spreadsheet applications
http://www.bom.gov.au/fwo/IDN60801/IDN60801.94925.axf

JavaScript Object Notation format (JSON) in row-major order
http://www.bom.gov.au/fwo/IDN60801/IDN60801.94925.json